Time;durP1;ratioP1;P1;durP2;ratioP2;P2;SDS_P1;SDS_P2;PMS_P1;PMS_P2;Temp;Humidity;BMP_temperature;BMP_pressure;BME280_temperature;BME280_humidity;BME280_pressure;Samples;Min_cycle;Max_cycle;Signal;HPM_P1;HPM_P2
2022/04/14 00:03:54;;;;;;;10.57;4.88;;;;;;;10.96;nan;101630.06;10369423;28;20049;-77
2022/04/14 00:08:55;;;;;;;10.52;4.22;;;;;;;10.94;nan;101623.88;10379575;28;20042;-76
2022/04/14 00:13:57;;;;;;;9.15;4.20;;;;;;;10.92;nan;101618.56;10369891;28;20548;-77
2022/04/14 00:18:59;;;;;;;9.23;4.20;;;;;;;10.91;nan;101613.28;10391244;28;20038;-77
2022/04/14 00:24:00;;;;;;;12.68;4.57;;;;;;;10.87;nan;101598.31;10385000;28;20045;-78
2022/04/14 00:29:02;;;;;;;8.38;4.57;;;;;;;10.84;nan;101590.38;10378606;28;20045;-78
2022/04/14 00:34:04;;;;;;;9.32;4.30;;;;;;;10.77;nan;101574.47;10367626;28;20402;-76
2022/04/14 00:39:05;;;;;;;7.80;4.38;;;;;;;10.76;nan;101567.50;10370995;28;20050;-77
2022/04/14 00:44:07;;;;;;;10.45;5.63;;;;;;;10.71;nan;101550.72;10383671;28;20049;-77
2022/04/14 00:49:09;;;;;;;11.25;4.95;;;;;;;10.69;nan;101547.19;10376584;28;20551;-77
2022/04/14 00:54:11;;;;;;;8.68;4.50;;;;;;;10.64;nan;101522.59;10371265;28;20052;-77
2022/04/14 00:59:13;;;;;;;14.15;5.13;;;;;;;10.58;nan;101506.69;10371824;28;20046;-77
2022/04/14 01:04:15;;;;;;;9.50;4.75;;;;;;;10.54;nan;101489.16;10360163;28;20039;-75
2022/04/14 01:09:20;;;;;;;11.55;4.45;;;;;;;10.55;nan;101504.00;10363318;28;20109;-76
2022/04/14 01:14:26;;;;;;;11.55;4.82;;;;;;;10.54;nan;101507.47;10370009;28;20054;-77
2022/04/14 01:19:28;;;;;;;9.45;4.28;;;;;;;10.50;nan;101496.00;10366656;28;20064;-76
2022/04/14 01:24:30;;;;;;;9.20;5.05;;;;;;;10.47;nan;101474.09;10371381;28;20321;-76
2022/04/14 01:29:32;;;;;;;10.70;4.80;;;;;;;10.43;nan;101467.88;10387420;28;20049;-76
2022/04/14 01:34:34;;;;;;;10.02;4.30;;;;;;;10.41;nan;101459.09;10380737;28;20034;-76
2022/04/14 01:39:35;;;;;;;15.80;5.43;;;;;;;10.38;nan;101454.66;10383784;28;20057;-76
2022/04/14 01:44:37;;;;;;;11.43;4.93;;;;;;;10.34;nan;101439.69;10382402;28;20038;-77
2022/04/14 01:49:39;;;;;;;12.80;4.68;;;;;;;10.33;nan;101435.31;10410055;28;20090;-77
2022/04/14 01:54:40;;;;;;;10.80;4.63;;;;;;;10.31;nan;101436.94;10424811;28;20034;-76
2022/04/14 01:59:42;;;;;;;12.00;5.00;;;;;;;10.28;nan;101423.78;10421709;28;20037;-76
2022/04/14 02:04:44;;;;;;;11.00;4.60;;;;;;;10.20;nan;101388.66;10420021;28;20041;-76
2022/04/14 02:09:45;;;;;;;11.65;4.95;;;;;;;10.22;nan;101400.06;10408368;28;20045;-77
2022/04/14 02:14:47;;;;;;;10.38;4.63;;;;;;;10.20;nan;101399.13;10408770;28;20049;-77
2022/04/14 02:19:49;;;;;;;9.50;4.82;;;;;;;10.16;nan;101387.66;10408183;28;20719;-76
2022/04/14 02:24:50;;;;;;;11.27;5.15;;;;;;;10.14;nan;101384.13;10393093;28;20048;-76
2022/04/14 02:29:52;;;;;;;7.88;4.43;;;;;;;10.13;nan;101381.47;10410839;28;20037;-77
2022/04/14 02:34:54;;;;;;;9.68;4.70;;;;;;;10.12;nan;101377.06;10407152;28;20041;-78
2022/04/14 02:39:56;;;;;;;10.45;4.85;;;;;;;10.12;nan;101380.59;10427410;28;20049;-76
2022/04/14 02:44:57;;;;;;;9.27;5.25;;;;;;;10.12;nan;101382.31;10424801;28;20029;-76
2022/04/14 02:49:59;;;;;;;10.27;5.38;;;;;;;10.06;nan;101365.59;10415311;28;20045;-77
2022/04/14 02:55:01;;;;;;;13.40;5.82;;;;;;;10.04;nan;101353.31;10412525;28;20043;-77
2022/04/14 03:00:11;;;;;;;13.70;5.50;;;;;;;10.01;nan;101342.75;10423799;28;20523;-76
2022/04/14 03:05:13;;;;;;;18.83;5.25;;;;;;;9.98;nan;101333.09;10398274;28;20076;-76
2022/04/14 03:10:14;;;;;;;10.75;5.78;;;;;;;9.93;nan;101326.84;10423469;28;20045;-77
2022/04/14 03:15:17;;;;;;;14.02;6.35;;;;;;;9.88;nan;101311.03;10410402;28;20044;-77
2022/04/14 03:20:19;;;;;;;13.88;5.75;;;;;;;9.84;nan;101295.22;10412256;28;20385;-76
2022/04/14 03:25:20;;;;;;;14.45;6.45;;;;;;;9.81;nan;101282.06;10406783;28;20056;-76
2022/04/14 03:30:22;;;;;;;14.07;6.15;;;;;;;9.75;nan;101260.97;10419807;28;20489;-76
2022/04/14 03:35:24;;;;;;;12.65;6.72;;;;;;;9.70;nan;101242.53;10406293;28;20392;-77
2022/04/14 03:40:25;;;;;;;15.88;7.20;;;;;;;9.65;nan;101224.09;10417374;28;20413;-76
2022/04/14 03:45:27;;;;;;;15.43;7.28;;;;;;;9.64;nan;101222.31;10415823;28;20913;-77
2022/04/14 03:50:29;;;;;;;20.00;8.07;;;;;;;9.64;nan;101226.66;10417162;28;20060;-76
2022/04/14 03:55:30;;;;;;;16.48;8.65;;;;;;;9.64;nan;101232.78;10417836;28;20056;-77
2022/04/14 04:00:32;;;;;;;16.13;8.30;;;;;;;9.67;nan;101247.69;10434574;28;20056;-77
2022/04/14 04:05:34;;;;;;;16.15;8.32;;;;;;;9.65;nan;101245.00;10423922;28;20042;-77
2022/04/14 04:10:36;;;;;;;17.58;9.75;;;;;;;9.62;nan;101234.44;10424191;28;20049;-76
2022/04/14 04:15:38;;;;;;;18.33;9.15;;;;;;;9.61;nan;101227.47;10424405;28;20037;-77
2022/04/14 04:20:39;;;;;;;19.25;9.57;;;;;;;9.62;nan;101237.06;10412124;28;20095;-77
2022/04/14 04:25:41;;;;;;;16.25;8.98;;;;;;;9.63;nan;101236.22;10420744;28;20551;-77
2022/04/14 04:30:43;;;;;;;19.58;9.30;;;;;;;9.60;nan;101230.91;10414421;28;20056;-77
2022/04/14 04:35:45;;;;;;;18.00;9.05;;;;;;;9.62;nan;101244.03;10394791;28;20033;-76
2022/04/14 04:40:47;;;;;;;20.65;10.00;;;;;;;9.59;nan;101229.13;10418023;28;20046;-77
2022/04/14 04:45:49;;;;;;;22.80;10.25;;;;;;;9.57;nan;101230.81;10416143;28;20032;-76
2022/04/14 04:50:51;;;;;;;19.23;10.43;;;;;;;9.53;nan;101213.28;10409215;28;20048;-76
2022/04/14 04:55:52;;;;;;;24.65;10.68;;;;;;;9.52;nan;101212.41;10414000;28;20503;-76
2022/04/14 05:00:54;;;;;;;22.33;10.80;;;;;;;9.56;nan;101231.66;10402168;28;20957;-76
2022/04/14 05:05:56;;;;;;;23.10;12.05;;;;;;;9.59;nan;101243.94;10408133;28;20046;-76
2022/04/14 05:10:57;;;;;;;24.88;12.43;;;;;;;9.61;nan;101260.53;10380032;28;20073;-76
2022/04/14 05:16:01;;;;;;;23.60;11.60;;;;;;;9.63;nan;101267.59;10417795;28;20033;-75
2022/04/14 05:21:03;;;;;;;23.30;11.68;;;;;;;9.68;nan;101291.25;10411699;28;20056;-76
2022/04/14 05:26:05;;;;;;;26.23;12.45;;;;;;;9.73;nan;101314.09;10384463;28;20033;-75
2022/04/14 05:31:07;;;;;;;27.48;13.48;;;;;;;9.79;nan;101342.16;10413270;28;20049;-76
2022/04/14 05:36:08;;;;;;;25.48;12.48;;;;;;;9.85;nan;101362.38;10423265;28;20059;-74
2022/04/14 05:41:10;;;;;;;26.17;12.65;;;;;;;9.90;nan;101397.41;10419701;28;20048;-74
2022/04/14 05:46:12;;;;;;;25.92;13.30;;;;;;;9.99;nan;101429.06;10418309;28;20033;-77
2022/04/14 05:51:13;;;;;;;28.55;14.18;;;;;;;10.11;nan;101480.00;10385178;28;20045;-76
2022/04/14 05:56:17;;;;;;;28.45;13.95;;;;;;;10.22;nan;101529.22;10392338;28;20406;-76
2022/04/14 06:01:18;;;;;;;27.75;14.65;;;;;;;10.38;nan;101595.16;10394007;28;20128;-75
2022/04/14 06:06:20;;;;;;;29.25;14.32;;;;;;;10.48;nan;101639.09;10407010;28;20052;-76
2022/04/14 06:11:22;;;;;;;29.45;15.05;;;;;;;10.66;nan;101717.34;10405782;28;20044;-76
2022/04/14 06:16:23;;;;;;;28.52;15.55;;;;;;;10.81;nan;101778.91;10411317;28;20045;-75
2022/04/14 06:21:25;;;;;;;35.47;15.10;;;;;;;10.93;nan;101836.97;10409757;28;20517;-75
2022/04/14 06:26:27;;;;;;;32.45;16.13;;;;;;;11.14;nan;101926.78;10419384;28;20134;-75
2022/04/14 06:31:28;;;;;;;28.55;15.27;;;;;;;11.27;nan;101977.00;10419393;28;20037;-75
2022/04/14 06:36:31;;;;;;;31.13;15.55;;;;;;;11.37;nan;102028.91;10419769;28;20459;-75
2022/04/14 06:41:32;;;;;;;31.80;16.08;;;;;;;11.44;nan;102054.50;10415358;28;20701;-75
2022/04/14 06:46:34;;;;;;;27.48;15.48;;;;;;;11.47;nan;102075.59;10421397;28;20578;-74
2022/04/14 06:51:36;;;;;;;31.80;16.67;;;;;;;11.48;nan;102076.47;10413399;28;20060;-74
2022/04/14 06:56:37;;;;;;;29.52;16.13;;;;;;;11.55;nan;102109.06;10420094;28;20071;-74
2022/04/14 07:01:39;;;;;;;24.60;15.35;;;;;;;11.61;nan;102139.00;10382983;28;20124;-70
2022/04/14 07:06:40;;;;;;;31.02;16.33;;;;;;;11.68;nan;102172.50;10414639;28;20462;-70
2022/04/14 07:11:42;;;;;;;30.77;16.48;;;;;;;11.72;nan;102180.47;10409344;28;20060;-74
2022/04/14 07:16:44;;;;;;;32.55;16.48;;;;;;;11.53;nan;102111.63;10412470;28;20392;-74
2022/04/14 07:21:46;;;;;;;32.53;16.08;;;;;;;11.41;nan;102059.66;10415953;28;20076;-72
2022/04/14 07:26:47;;;;;;;33.03;17.75;;;;;;;11.32;nan;102025.25;10412068;28;20052;-74
2022/04/14 07:31:50;;;;;;;32.58;15.85;;;;;;;11.41;nan;102066.59;10418619;28;20124;-72
2022/04/14 07:36:52;;;;;;;31.08;16.92;;;;;;;11.65;nan;102166.25;10417057;28;20037;-73
2022/04/14 07:41:53;;;;;;;34.58;17.83;;;;;;;12.64;nan;102589.94;10418138;28;20049;-72
2022/04/14 07:46:55;;;;;;;28.30;17.20;;;;;;;13.75;nan;103071.31;10415895;28;20048;-73
2022/04/14 07:51:57;;;;;;;32.75;17.33;;;;;;;14.76;nan;103513.88;10412135;28;20057;-73
2022/04/14 07:57:00;;;;;;;30.00;17.05;;;;;;;15.52;nan;103844.44;10414999;28;20076;-72
2022/04/14 08:02:01;;;;;;;30.08;15.43;;;;;;;16.15;nan;104129.22;10405982;28;20064;-72
2022/04/14 08:07:03;;;;;;;26.45;15.32;;;;;;;15.81;nan;103982.28;10409650;28;20037;-69
2022/04/14 08:12:17;;;;;;;22.73;13.75;;;;;;;16.40;nan;104239.69;10406773;28;20077;-69
2022/04/14 08:17:18;;;;;;;20.70;13.15;;;;;;;16.67;nan;104358.25;10410207;28;20097;-69
2022/04/14 08:22:20;;;;;;;24.13;12.23;;;;;;;16.57;nan;104314.56;10410528;28;20049;-69
2022/04/14 08:27:22;;;;;;;22.08;11.82;;;;;;;16.79;nan;104415.31;10414075;28;20077;-68
2022/04/14 08:32:24;;;;;;;25.67;13.65;;;;;;;17.22;nan;104601.00;10410633;28;20037;-70
2022/04/14 08:37:25;;;;;;;20.50;10.90;;;;;;;17.17;nan;104578.69;10392449;28;20025;-69
2022/04/14 08:42:38;;;;;;;19.05;10.90;;;;;;;17.59;nan;104769.78;10404087;28;20136;-69
2022/04/14 08:47:40;;;;;;;19.05;9.45;;;;;;;17.67;nan;104802.91;10407285;28;20041;-69
2022/04/14 08:52:42;;;;;;;17.33;9.77;;;;;;;17.95;nan;104923.66;10408665;28;20042;-70
2022/04/14 08:57:45;;;;;;;17.25;9.73;;;;;;;18.27;nan;105063.28;10399292;28;20041;-70
2022/04/14 09:02:49;;;;;;;16.67;8.85;;;;;;;18.59;nan;105195.88;10401220;28;20749;-70
2022/04/14 09:07:51;;;;;;;16.42;8.45;;;;;;;18.94;nan;105362.41;10406543;28;20136;-70
2022/04/14 09:12:53;;;;;;;17.65;9.63;;;;;;;18.75;nan;105259.56;10406485;28;20127;-70
2022/04/14 09:17:55;;;;;;;17.92;9.13;;;;;;;18.97;nan;105354.63;10404777;28;20068;-70
2022/04/14 09:23:13;;;;;;;14.80;9.05;;;;;;;18.81;nan;105275.84;10403596;28;20064;-68
2022/04/14 09:28:18;;;;;;;13.48;7.93;;;;;;;19.20;nan;105445.28;10419407;28;20041;-70
2022/04/14 09:33:20;;;;;;;17.45;8.48;;;;;;;18.94;nan;105324.34;10413049;28;20044;-69
2022/04/14 09:38:56;;;;;;;14.95;7.22;;;;;;;18.85;nan;105272.53;10403212;28;20409;-71
2022/04/14 09:44:00;;;;;;;14.27;7.65;;;;;;;19.23;nan;105435.75;10411400;28;20041;-70
2022/04/14 09:49:10;;;;;;;13.75;8.38;;;;;;;19.32;nan;105466.31;10408720;28;20539;-68
2022/04/14 09:54:12;;;;;;;15.82;8.32;;;;;;;19.82;nan;105688.03;10405617;28;20128;-71
2022/04/14 09:59:25;;;;;;;13.48;7.28;;;;;;;20.81;nan;106134.81;10408160;28;20127;-69
2022/04/14 10:04:32;;;;;;;12.30;7.03;;;;;;;20.79;nan;106115.16;10410881;28;20041;-71
2022/04/14 10:09:39;;;;;;;12.20;6.22;;;;;;;20.88;nan;106154.75;10410532;28;20499;-69
2022/04/14 10:14:40;;;;;;;13.98;7.32;;;;;;;20.64;nan;106026.31;10411004;28;20092;-70
2022/04/14 10:19:43;;;;;;;13.30;6.68;;;;;;;21.15;nan;106247.81;10407910;28;20477;-72
2022/04/14 10:24:50;;;;;;;12.63;7.85;;;;;;;20.12;nan;105758.03;10408171;28;20396;-72
2022/04/14 10:29:53;;;;;;;11.68;7.57;;;;;;;19.38;nan;105416.16;10410191;28;20047;-71
2022/04/14 10:34:57;;;;;;;13.88;7.70;;;;;;;18.80;nan;105135.91;10410528;28;20127;-72
2022/04/14 10:39:59;;;;;;;17.45;7.53;;;;;;;18.15;nan;104840.72;10409459;28;20551;-73
2022/04/14 10:45:15;;;;;;;11.50;6.65;;;;;;;18.07;nan;104799.63;10407120;28;20056;-71
2022/04/14 10:50:23;;;;;;;11.35;6.60;;;;;;;17.94;nan;104722.94;10401641;28;20827;-68
2022/04/14 10:55:35;;;;;;;11.40;6.45;;;;;;;18.25;nan;104854.44;10408489;28;20052;-69
2022/04/14 11:00:37;;;;;;;12.25;7.10;;;;;;;18.79;nan;105090.69;10416792;28;20492;-68
2022/04/14 11:05:49;;;;;;;10.95;6.57;;;;;;;18.48;nan;104948.44;10418891;28;20116;-69
2022/04/14 11:11:09;;;;;;;11.05;6.22;;;;;;;17.70;nan;104591.00;10411423;28;20061;-75
2022/04/14 11:16:41;;;;;;;12.15;6.95;;;;;;;17.52;nan;104498.28;10401009;28;20068;-72
2022/04/14 11:21:58;;;;;;;13.98;7.07;;;;;;;17.45;nan;104462.63;10406409;28;20485;-69
2022/04/14 11:27:28;;;;;;;12.90;7.35;;;;;;;17.31;nan;104393.13;10402200;28;20144;-71
2022/04/14 11:32:40;;;;;;;15.57;6.32;;;;;;;17.31;nan;104382.53;10390350;28;20041;-71
2022/04/14 11:38:02;;;;;;;12.13;5.57;;;;;;;18.50;nan;104902.56;10401257;28;20049;-71
2022/04/14 11:43:06;;;;;;;10.50;5.47;;;;;;;18.48;nan;104885.66;10403873;28;20049;-70
2022/04/14 11:48:21;;;;;;;10.75;5.07;;;;;;;17.85;nan;104602.34;10399271;28;20184;-71
2022/04/14 11:53:29;;;;;;;14.50;6.68;;;;;;;17.80;nan;104576.44;10402056;28;20143;-70
2022/04/14 11:58:43;;;;;;;12.38;5.95;;;;;;;17.44;nan;104407.84;10406844;28;20044;-71
2022/04/14 12:03:45;;;;;;;10.07;5.68;;;;;;;17.09;nan;104248.22;10409301;28;20072;-71
2022/04/14 12:08:56;;;;;;;10.57;5.75;;;;;;;16.91;nan;104160.94;10409537;28;20523;-71
2022/04/14 12:13:57;;;;;;;12.77;5.60;;;;;;;16.70;nan;104064.72;10406763;28;20051;-71
2022/04/14 12:19:00;;;;;;;11.57;6.32;;;;;;;16.66;nan;104044.22;10415016;28;20048;-71
2022/04/14 12:24:03;;;;;;;12.52;6.80;;;;;;;16.95;nan;104162.00;10412085;28;21229;-71
2022/04/14 12:29:08;;;;;;;10.45;5.72;;;;;;;17.28;nan;104304.69;10410947;28;20552;-72
2022/04/14 12:34:10;;;;;;;11.57;6.00;;;;;;;17.69;nan;104477.88;10409945;28;20056;-71
2022/04/14 12:39:31;;;;;;;11.02;6.00;;;;;;;17.93;nan;104572.66;10400253;28;20063;-72
2022/04/14 12:44:43;;;;;;;9.38;5.18;;;;;;;18.20;nan;104689.75;10408050;28;20464;-71
2022/04/14 12:49:47;;;;;;;9.23;5.18;;;;;;;17.84;nan;104526.28;10412298;28;20053;-72
2022/04/14 12:54:49;;;;;;;11.05;6.13;;;;;;;17.31;nan;104288.94;10406279;28;20037;-71
2022/04/14 13:00:01;;;;;;;11.70;6.70;;;;;;;17.39;nan;104314.00;10413276;28;20333;-70
2022/04/14 13:05:14;;;;;;;11.35;6.32;;;;;;;17.56;nan;104380.97;10406324;28;20056;-71
2022/04/14 13:10:39;;;;;;;10.95;6.10;;;;;;;17.41;nan;104314.06;10406275;28;20572;-70
2022/04/14 13:15:40;;;;;;;9.27;4.75;;;;;;;17.05;nan;104153.59;10406670;28;20044;-71
2022/04/14 13:20:42;;;;;;;9.25;4.65;;;;;;;16.68;nan;103982.63;10403092;28;20041;-70
2022/04/14 13:25:46;;;;;;;10.02;4.97;;;;;;;16.46;nan;103889.97;10420437;28;20205;-71
2022/04/14 13:30:48;;;;;;;10.20;5.55;;;;;;;16.37;nan;103843.75;10409528;28;20339;-73
2022/04/14 13:35:50;;;;;;;9.75;5.30;;;;;;;16.41;nan;103853.63;10407570;28;20049;-81
2022/04/14 13:40:52;;;;;;;9.90;4.90;;;;;;;16.41;nan;103850.09;10420433;28;20044;-70
2022/04/14 13:45:53;;;;;;;12.20;4.38;;;;;;;16.72;nan;103986.28;10407509;28;20056;-69
2022/04/14 13:50:55;;;;;;;11.18;4.43;;;;;;;16.92;nan;104063.94;10412308;28;20607;-69
2022/04/14 13:55:57;;;;;;;8.70;4.47;;;;;;;16.97;nan;104080.91;10411278;28;20045;-69
2022/04/14 14:00:59;;;;;;;6.72;3.28;;;;;;;17.06;nan;104118.34;10410207;28;20037;-69
2022/04/14 14:06:01;;;;;;;5.68;2.03;;;;;;;17.11;nan;104138.00;10413772;28;20041;-69
2022/04/14 14:11:03;;;;;;;5.47;1.75;;;;;;;16.85;nan;104011.53;10414532;28;20052;-71
2022/04/14 14:16:04;;;;;;;7.25;2.08;;;;;;;16.75;nan;103974.09;10415407;28;20041;-72
2022/04/14 14:21:10;;;;;;;4.97;2.08;;;;;;;16.77;nan;103975.06;10413142;28;20053;-72
2022/04/14 14:26:12;;;;;;;6.95;2.42;;;;;;;16.73;nan;103953.69;10421851;28;20260;-71
2022/04/14 14:31:17;;;;;;;9.82;3.05;;;;;;;16.79;nan;103981.31;10410143;28;20595;-71
2022/04/14 14:36:19;;;;;;;6.47;2.50;;;;;;;16.84;nan;103992.09;10405555;28;20051;-72
2022/04/14 14:41:21;;;;;;;8.73;1.98;;;;;;;16.95;nan;104043.78;10407381;28;20524;-69
2022/04/14 14:46:22;;;;;;;6.55;2.30;;;;;;;16.82;nan;103985.84;10419183;28;20036;-73
2022/04/14 14:51:25;;;;;;;6.13;2.50;;;;;;;16.71;nan;103934.19;10397032;28;20080;-74
2022/04/14 14:56:27;;;;;;;5.93;2.30;;;;;;;16.59;nan;103877.31;10402555;28;20056;-72
2022/04/14 15:01:29;;;;;;;5.65;2.08;;;;;;;16.62;nan;103884.47;10394132;28;20042;-74
2022/04/14 15:06:31;;;;;;;5.60;2.05;;;;;;;16.48;nan;103822.16;10400172;28;20069;-73
2022/04/14 15:11:34;;;;;;;7.38;2.08;;;;;;;16.44;nan;103803.50;10397728;28;20517;-71
2022/04/14 15:16:36;;;;;;;9.75;2.78;;;;;;;16.47;nan;103809.75;10400013;28;20053;-76
2022/04/14 15:21:38;;;;;;;7.78;1.95;;;;;;;16.48;nan;103809.81;10395834;28;20130;-70
2022/04/14 15:26:40;;;;;;;6.55;2.35;;;;;;;16.65;nan;103884.59;10395610;28;20532;-71
2022/04/14 15:31:41;;;;;;;6.32;2.08;;;;;;;17.08;nan;104052.22;10408313;28;20064;-75
2022/04/14 15:36:43;;;;;;;8.40;2.35;;;;;;;17.25;nan;104135.03;10422309;28;20072;-72
2022/04/14 15:41:45;;;;;;;11.82;3.08;;;;;;;16.76;nan;103916.78;10415887;28;20069;-71
2022/04/14 15:46:46;;;;;;;4.13;1.70;;;;;;;16.76;nan;103917.69;10419540;28;20542;-71
2022/04/14 15:51:48;;;;;;;6.10;1.98;;;;;;;16.82;nan;103932.03;10410349;28;20122;-73
2022/04/14 15:56:49;;;;;;;5.60;1.25;;;;;;;16.72;nan;103896.31;10408801;28;20481;-72
2022/04/14 16:01:51;;;;;;;3.22;1.35;;;;;;;16.63;nan;103851.88;10405282;28;20052;-72
2022/04/14 16:06:53;;;;;;;3.78;1.45;;;;;;;16.62;nan;103844.78;10414056;28;20041;-72
2022/04/14 16:12:04;;;;;;;4.22;1.58;;;;;;;16.79;nan;103914.25;10420292;28;20045;-72
2022/04/14 16:17:05;;;;;;;5.38;1.58;;;;;;;16.55;nan;103811.00;10406296;28;20164;-73
2022/04/14 16:22:07;;;;;;;3.65;1.40;;;;;;;15.66;nan;103433.03;10408276;28;20167;-73
2022/04/14 16:27:09;;;;;;;6.03;1.70;;;;;;;15.32;nan;103283.88;10407699;28;20398;-74
2022/04/14 16:32:11;;;;;;;4.63;1.45;;;;;;;15.27;nan;103262.59;10375236;28;20050;-72
2022/04/14 16:37:12;;;;;;;6.38;1.30;;;;;;;15.34;nan;103287.47;10391143;28;20049;-72
2022/04/14 16:42:14;;;;;;;3.55;1.45;;;;;;;15.26;nan;103257.28;10398195;28;20131;-72
2022/04/14 16:47:15;;;;;;;5.47;1.90;;;;;;;15.06;nan;103169.44;10411042;28;20658;-72
2022/04/14 16:52:18;;;;;;;5.25;1.50;;;;;;;15.15;nan;103201.47;10404521;28;20527;-73
2022/04/14 16:57:19;;;;;;;4.45;1.30;;;;;;;15.31;nan;103272.44;10399072;28;20057;-72
2022/04/14 17:02:21;;;;;;;7.00;3.05;;;;;;;15.23;nan;103236.94;10407472;28;20045;-73
2022/04/14 17:07:23;;;;;;;5.00;1.63;;;;;;;15.06;nan;103158.88;10402189;28;20392;-73
2022/04/14 17:12:26;;;;;;;5.15;1.58;;;;;;;15.05;nan;103151.81;10398905;28;20044;-72
2022/04/14 17:17:29;;;;;;;2.50;1.50;;;;;;;15.05;nan;103155.34;10400388;28;20930;-73
2022/04/14 17:27:54;;;;;;;4.85;1.70;;;;;;;14.65;nan;102985.13;10405835;28;20142;-73
2022/04/14 17:32:57;;;;;;;5.10;1.40;;;;;;;14.16;nan;102781.34;10402184;28;20048;-73
2022/04/14 17:37:59;;;;;;;6.50;1.63;;;;;;;13.85;nan;102653.00;10406921;28;20555;-73
2022/04/14 17:43:00;;;;;;;5.53;1.85;;;;;;;13.49;nan;102503.53;10409912;28;20037;-72
2022/04/14 17:48:04;;;;;;;7.53;1.95;;;;;;;13.17;nan;102367.44;10413540;28;20048;-72
2022/04/14 17:53:06;;;;;;;4.63;1.40;;;;;;;12.88;nan;102248.19;10400272;28;20578;-73
2022/04/14 17:58:09;;;;;;;6.07;1.45;;;;;;;12.71;nan;102171.47;10400629;28;20056;-73
2022/04/14 18:03:12;;;;;;;6.05;2.03;;;;;;;12.48;nan;102084.06;10397567;28;20102;-72
2022/04/14 18:08:16;;;;;;;3.70;1.70;;;;;;;12.26;nan;101982.72;10401424;28;20056;-72
2022/04/14 18:13:17;;;;;;;5.65;1.90;;;;;;;12.04;nan;101905.97;10400967;28;20444;-72
2022/04/14 18:18:21;;;;;;;7.43;2.00;;;;;;;11.93;nan;101858.38;10389544;28;20172;-73
2022/04/14 18:23:23;;;;;;;7.60;2.38;;;;;;;11.77;nan;101796.69;10393204;28;20507;-73
2022/04/14 18:28:24;;;;;;;5.13;2.00;;;;;;;11.63;nan;101732.44;10394992;28;20156;-72
2022/04/14 18:33:26;;;;;;;5.65;2.20;;;;;;;11.44;nan;101660.19;10399248;28;20045;-73
2022/04/14 18:38:28;;;;;;;7.78;2.05;;;;;;;11.37;nan;101629.44;10400274;28;20052;-73
2022/04/14 18:43:30;;;;;;;7.47;2.08;;;;;;;11.21;nan;101567.81;10396941;28;20044;-72
2022/04/14 18:48:32;;;;;;;7.85;2.42;;;;;;;11.03;nan;101498.31;10391250;28;20047;-72
2022/04/14 18:53:35;;;;;;;8.40;3.05;;;;;;;10.91;nan;101456.09;10402706;28;20440;-73
2022/04/14 18:58:37;;;;;;;9.20;2.60;;;;;;;10.78;nan;101398.13;10413120;28;20033;-72
2022/04/14 19:03:39;;;;;;;7.60;2.63;;;;;;;10.64;nan;101339.25;10393001;28;20578;-73
2022/04/14 19:08:42;;;;;;;7.82;2.53;;;;;;;10.53;nan;101298.81;10403948;28;20038;-72
2022/04/14 19:13:44;;;;;;;6.22;2.70;;;;;;;10.38;nan;101247.84;10406178;28;20509;-72
2022/04/14 19:18:46;;;;;;;7.55;2.40;;;;;;;10.26;nan;101189.91;10408803;28;20052;-72
2022/04/14 19:23:47;;;;;;;5.32;2.13;;;;;;;10.05;nan;101112.66;10405358;28;20052;-72
2022/04/14 19:28:49;;;;;;;5.68;2.03;;;;;;;9.88;nan;101044.22;10406479;28;20060;-72
2022/04/14 19:33:51;;;;;;;6.63;2.60;;;;;;;9.72;nan;100974.09;10405854;28;20044;-71
2022/04/14 19:38:53;;;;;;;6.82;3.20;;;;;;;9.60;nan;100932.84;10394015;28;20041;-72
2022/04/14 19:43:56;;;;;;;7.35;2.38;;;;;;;9.51;nan;100890.81;10396047;28;20075;-72
2022/04/14 19:48:58;;;;;;;9.80;2.65;;;;;;;9.41;nan;100854.84;10405123;28;20382;-73
2022/04/14 19:54:00;;;;;;;8.98;2.40;;;;;;;9.29;nan;100806.72;10381251;28;20068;-72
2022/04/14 19:59:01;;;;;;;9.30;2.90;;;;;;;9.15;nan;100753.25;10402396;28;20069;-72
2022/04/14 20:04:10;;;;;;;13.98;3.05;;;;;;;9.01;nan;100701.59;10401489;28;20041;-72
2022/04/14 20:09:15;;;;;;;9.55;3.42;;;;;;;8.81;nan;100619.31;10406101;28;20111;-73
2022/04/14 20:14:17;;;;;;;8.18;3.05;;;;;;;8.74;nan;100596.56;10396065;28;20052;-72
2022/04/14 20:19:18;;;;;;;7.63;2.95;;;;;;;8.60;nan;100542.31;10399121;28;20038;-72
2022/04/14 20:24:20;;;;;;;9.77;2.90;;;;;;;8.57;nan;100531.81;10403008;28;20076;-72
2022/04/14 20:29:22;;;;;;;11.88;3.22;;;;;;;8.46;nan;100494.16;10399696;28;20584;-72
2022/04/14 20:34:23;;;;;;;11.30;3.10;;;;;;;8.39;nan;100466.13;10410545;28;20064;-72
2022/04/14 20:39:25;;;;;;;9.13;3.80;;;;;;;8.38;nan;100461.78;10416258;28;20049;-72
2022/04/14 20:44:27;;;;;;;11.88;3.45;;;;;;;8.39;nan;100468.75;10421496;28;20049;-72
2022/04/14 20:49:28;;;;;;;13.90;3.40;;;;;;;8.38;nan;100459.19;10410417;28;20038;-72
2022/04/14 20:54:31;;;;;;;8.43;3.03;;;;;;;8.37;nan;100460.03;10407248;28;20042;-72
2022/04/14 20:59:33;;;;;;;8.73;2.85;;;;;;;8.37;nan;100471.31;10404338;28;20041;-71
2022/04/14 21:04:38;;;;;;;9.77;3.03;;;;;;;8.34;nan;100453.00;10400504;28;20045;-72
2022/04/14 21:09:40;;;;;;;12.23;3.75;;;;;;;8.40;nan;100470.53;10410515;28;20076;-72
2022/04/14 21:14:42;;;;;;;10.30;3.70;;;;;;;8.36;nan;100466.06;10401027;28;20052;-72
2022/04/14 21:19:44;;;;;;;10.48;3.35;;;;;;;8.33;nan;100453.84;10400537;28;20072;-72
2022/04/14 21:24:54;;;;;;;12.60;3.42;;;;;;;8.35;nan;100462.59;10399720;28;20045;-72
2022/04/14 21:29:57;;;;;;;10.38;4.55;;;;;;;8.21;nan;100412.75;10389327;28;20098;-72
2022/04/14 21:34:59;;;;;;;12.25;4.05;;;;;;;8.24;nan;100431.09;10404206;28;20049;-72
2022/04/14 21:40:01;;;;;;;14.77;3.20;;;;;;;8.19;nan;100406.59;10403361;28;20708;-72
2022/04/14 21:45:30;;;;;;;8.32;3.15;;;;;;;8.26;nan;100429.38;10400243;28;20041;-72
2022/04/14 21:50:26;;;;;;;6.63;2.90;;;;;;;8.19;nan;100405.75;10407853;28;20038;-72
2022/04/14 21:55:30;;;;;;;5.00;2.50;;;;;;;8.18;nan;100407.47;10411475;28;20075;-72
2022/04/14 22:06:02;;;;;;;6.95;2.38;;;;;;;8.12;nan;100386.47;10404823;28;20037;-71
2022/04/14 22:11:07;;;;;;;8.05;2.80;;;;;;;8.12;nan;100392.56;10404199;28;20088;-72
2022/04/14 22:16:09;;;;;;;11.98;2.72;;;;;;;8.08;nan;100374.22;10408988;28;20098;-72
2022/04/14 22:21:11;;;;;;;12.77;2.72;;;;;;;8.05;nan;100374.16;10394167;28;20046;-72
2022/04/14 22:26:15;;;;;;;8.63;2.50;;;;;;;8.11;nan;100393.41;10377892;28;20459;-72
2022/04/14 22:31:21;;;;;;;10.20;3.00;;;;;;;8.05;nan;100367.22;10414618;28;20045;-72
2022/04/14 22:36:25;;;;;;;5.28;2.28;;;;;;;8.12;nan;100391.69;10395217;28;20041;-72
2022/04/14 22:41:27;;;;;;;6.00;2.30;;;;;;;8.11;nan;100397.75;10403973;28;20049;-72
2022/04/14 22:46:32;;;;;;;8.80;2.55;;;;;;;8.10;nan;100393.38;10372590;28;20052;-72
2022/04/14 22:51:37;;;;;;;6.05;2.60;;;;;;;8.13;nan;100406.47;10384404;28;20128;-72
2022/04/14 22:56:39;;;;;;;11.25;2.80;;;;;;;8.06;nan;100378.50;10404337;28;20390;-72
2022/04/14 23:01:41;;;;;;;7.03;2.38;;;;;;;8.01;nan;100368.00;10405156;28;20061;-72
2022/04/14 23:06:43;;;;;;;7.88;2.25;;;;;;;8.01;nan;100364.50;10407542;28;20116;-71
2022/04/14 23:11:44;;;;;;;4.82;2.22;;;;;;;7.97;nan;100347.91;10408621;28;20057;-71
2022/04/14 23:16:46;;;;;;;8.27;2.35;;;;;;;8.03;nan;100375.84;10398907;28;20116;-72
2022/04/14 23:21:50;;;;;;;3.88;1.58;;;;;;;8.01;nan;100373.22;10410760;28;20057;-72
2022/04/14 23:26:51;;;;;;;5.07;1.48;;;;;;;7.99;nan;100364.47;10407993;28;20051;-72
2022/04/14 23:31:53;;;;;;;4.70;1.63;;;;;;;8.03;nan;100381.06;10401994;28;20521;-72
2022/04/14 23:36:55;;;;;;;5.28;1.83;;;;;;;8.06;nan;100392.44;10408476;28;20037;-72
2022/04/14 23:41:59;;;;;;;4.95;1.77;;;;;;;8.08;nan;100410.75;10397689;28;20136;-71
2022/04/14 23:47:01;;;;;;;4.15;1.70;;;;;;;8.04;nan;100385.44;10387339;28;20042;-72
2022/04/14 23:52:03;;;;;;;3.78;1.60;;;;;;;8.01;nan;100375.81;10366486;28;20044;-72